Time;durP1;ratioP1;P1;durP2;ratioP2;P2;SDS_P1;SDS_P2;PMS_P1;PMS_P2;Temp;Humidity;BMP_temperature;BMP_pressure;BME280_temperature;BME280_humidity;BME280_pressure;Samples;Min_cycle;Max_cycle;Signal;HPM_P1;HPM_P2
2021/08/17 00:00:32;;;;;;;9.90;2.53;;;13.60;99.90;;;;;;5032584;28;20182;-74
2021/08/17 00:02:58;;;;;;;9.07;2.40;;;13.70;99.90;;;;;;5032708;28;20207;-75
2021/08/17 00:05:24;;;;;;;12.30;2.47;;;13.70;99.90;;;;;;5032776;28;20285;-75
2021/08/17 00:07:49;;;;;;;7.07;2.40;;;13.60;99.90;;;;;;5033025;28;20201;-75
2021/08/17 00:10:15;;;;;;;11.60;2.73;;;13.70;99.90;;;;;;5032621;28;20175;-75
2021/08/17 00:12:40;;;;;;;12.30;2.30;;;13.60;99.90;;;;;;5032545;28;20179;-74
2021/08/17 00:15:08;;;;;;;10.47;2.40;;;13.70;99.90;;;;;;5032708;28;20599;-75
2021/08/17 00:17:33;;;;;;;10.03;2.53;;;13.70;99.90;;;;;;5032635;28;20178;-75
2021/08/17 00:19:59;;;;;;;8.97;2.50;;;13.70;99.90;;;;;;5032258;28;20179;-75
2021/08/17 00:22:24;;;;;;;10.27;2.13;;;13.80;99.90;;;;;;5033653;28;20229;-75
2021/08/17 00:24:50;;;;;;;7.17;2.30;;;13.90;99.90;;;;;;5032318;28;20214;-75
2021/08/17 00:27:16;;;;;;;8.20;2.37;;;13.80;99.90;;;;;;5015755;28;20535;-75
2021/08/17 00:29:42;;;;;;;10.63;2.50;;;13.80;99.90;;;;;;5032134;28;20175;-75
2021/08/17 00:32:07;;;;;;;11.93;2.27;;;13.90;99.90;;;;;;5033541;28;20229;-74
2021/08/17 00:34:33;;;;;;;12.50;2.37;;;13.90;99.90;;;;;;5032275;28;20601;-75
2021/08/17 00:36:58;;;;;;;15.93;2.53;;;13.90;99.90;;;;;;5032186;28;20179;-75
2021/08/17 00:39:25;;;;;;;8.03;2.07;;;13.90;99.90;;;;;;5031897;28;20268;-75
2021/08/17 00:41:51;;;;;;;10.70;2.40;;;14.00;99.90;;;;;;5031921;28;20175;-75
2021/08/17 00:44:23;;;;;;;9.53;2.37;;;14.00;99.90;;;;;;5032737;28;20219;-75
2021/08/17 00:46:49;;;;;;;9.07;2.00;;;14.00;99.90;;;;;;5031774;28;20539;-75
2021/08/17 00:49:14;;;;;;;10.47;2.30;;;14.00;99.90;;;;;;5014577;28;20174;-75
2021/08/17 00:51:40;;;;;;;8.90;2.37;;;14.00;99.90;;;;;;5032992;28;20175;-75
2021/08/17 00:54:06;;;;;;;11.17;2.10;;;13.90;99.90;;;;;;5015236;28;20293;-75
2021/08/17 00:56:31;;;;;;;7.50;2.30;;;13.90;99.90;;;;;;5031677;28;20186;-75
2021/08/17 00:58:57;;;;;;;8.77;2.33;;;14.00;99.90;;;;;;5031401;28;20245;-75
2021/08/17 01:01:22;;;;;;;8.90;2.20;;;13.90;99.90;;;;;;5032822;28;20174;-76
2021/08/17 01:03:48;;;;;;;11.33;2.30;;;14.00;99.90;;;;;;5031463;28;20207;-75
2021/08/17 01:06:13;;;;;;;8.07;2.27;;;14.00;99.90;;;;;;5031384;28;20640;-75
2021/08/17 01:08:39;;;;;;;11.30;2.30;;;14.00;99.90;;;;;;5014701;28;20624;-75
2021/08/17 01:11:04;;;;;;;12.13;2.53;;;13.90;99.90;;;;;;5014952;28;20183;-75
2021/08/17 01:13:30;;;;;;;11.27;2.23;;;13.90;99.90;;;;;;5031266;28;20199;-74
2021/08/17 01:15:57;;;;;;;8.37;2.27;;;13.90;99.90;;;;;;5015347;28;20273;-75
2021/08/17 01:18:23;;;;;;;7.53;2.10;;;13.90;99.90;;;;;;5031305;28;20210;-75
2021/08/17 01:20:50;;;;;;;9.07;2.63;;;13.90;99.90;;;;;;5032248;28;20214;-75
2021/08/17 01:23:19;;;;;;;8.50;2.30;;;13.90;99.90;;;;;;5031114;28;20297;-75
2021/08/17 01:25:44;;;;;;;8.27;2.10;;;13.90;99.90;;;;;;5031074;28;20671;-74
2021/08/17 01:28:10;;;;;;;12.17;2.47;;;13.90;99.90;;;;;;5031296;28;20174;-75
2021/08/17 01:30:35;;;;;;;7.20;2.43;;;13.90;99.90;;;;;;5030973;28;20175;-75
2021/08/17 01:33:01;;;;;;;7.17;1.83;;;13.90;99.90;;;;;;5031222;28;20203;-75
2021/08/17 01:35:27;;;;;;;9.20;2.30;;;13.90;99.90;;;;;;5031598;28;20534;-75
2021/08/17 01:37:52;;;;;;;10.83;2.27;;;13.80;99.90;;;;;;5032821;28;20178;-75
2021/08/17 01:40:18;;;;;;;8.57;2.30;;;13.90;99.90;;;;;;5031483;28;20178;-75
2021/08/17 01:42:48;;;;;;;11.40;2.63;;;13.90;99.90;;;;;;5031607;28;20244;-75
2021/08/17 01:45:14;;;;;;;14.27;2.97;;;13.90;99.90;;;;;;5032243;28;20207;-75
2021/08/17 01:47:40;;;;;;;11.00;2.43;;;13.90;99.90;;;;;;5031151;28;20631;-75
2021/08/17 01:50:06;;;;;;;7.77;2.20;;;13.90;99.90;;;;;;5014291;28;20202;-75
2021/08/17 01:52:34;;;;;;;11.70;2.20;;;13.80;99.90;;;;;;5030908;28;20548;-75
2021/08/17 01:55:00;;;;;;;8.90;2.20;;;13.80;99.90;;;;;;5030805;28;20179;-75
2021/08/17 01:57:25;;;;;;;12.47;2.67;;;13.80;99.90;;;;;;5032000;28;20265;-75
2021/08/17 01:59:51;;;;;;;8.23;2.23;;;13.70;99.90;;;;;;5030667;28;20189;-74
2021/08/17 02:02:16;;;;;;;10.43;2.07;;;13.70;99.90;;;;;;5035233;28;20232;-75
2021/08/17 02:04:42;;;;;;;10.73;2.13;;;13.70;99.90;;;;;;5034854;28;20552;-75
2021/08/17 02:07:08;;;;;;;13.17;3.20;;;13.70;99.90;;;;;;5034954;28;20171;-75
2021/08/17 02:09:33;;;;;;;8.90;2.30;;;13.70;99.90;;;;;;5034655;28;20681;-74
2021/08/17 02:11:59;;;;;;;11.50;2.50;;;13.70;99.90;;;;;;5034666;28;20654;-75
2021/08/17 02:14:25;;;;;;;7.20;2.00;;;13.80;99.90;;;;;;5034645;28;20187;-75
2021/08/17 02:16:50;;;;;;;7.53;2.50;;;13.70;99.90;;;;;;5034759;28;20547;-75
2021/08/17 02:19:16;;;;;;;12.90;2.30;;;13.70;99.90;;;;;;5035649;28;20541;-75
2021/08/17 02:21:42;;;;;;;9.97;2.80;;;13.60;99.90;;;;;;5034664;28;20175;-75
2021/08/17 02:24:08;;;;;;;10.90;2.73;;;13.60;99.90;;;;;;5034583;28;20198;-75
2021/08/17 02:26:33;;;;;;;11.10;2.80;;;13.60;99.90;;;;;;5034594;28;20202;-75
2021/08/17 02:28:59;;;;;;;13.43;2.77;;;13.60;99.90;;;;;;5034500;28;20254;-75
2021/08/17 02:31:24;;;;;;;10.63;2.97;;;13.60;99.90;;;;;;5034427;28;20195;-75
2021/08/17 02:33:50;;;;;;;15.07;3.00;;;13.60;99.90;;;;;;5035704;28;20276;-75
2021/08/17 02:36:15;;;;;;;12.10;2.90;;;13.60;99.90;;;;;;5018007;28;20186;-75
2021/08/17 02:38:41;;;;;;;11.23;2.70;;;13.60;99.90;;;;;;5034137;28;20194;-75
2021/08/17 02:41:06;;;;;;;13.70;2.70;;;13.60;99.90;;;;;;5034446;28;20179;-75
2021/08/17 02:43:32;;;;;;;17.10;3.13;;;13.60;99.90;;;;;;5035153;28;20273;-74
2021/08/17 02:45:58;;;;;;;13.33;2.93;;;13.70;99.90;;;;;;5017387;28;20298;-75
2021/08/17 02:48:23;;;;;;;10.90;2.30;;;13.60;99.90;;;;;;5033643;28;20179;-75
2021/08/17 02:50:49;;;;;;;8.90;2.67;;;13.70;99.90;;;;;;5034065;28;20209;-75
2021/08/17 02:53:14;;;;;;;11.83;2.70;;;13.70;99.90;;;;;;5034052;28;20195;-75
2021/08/17 02:55:40;;;;;;;8.80;2.33;;;13.70;99.90;;;;;;5017902;28;20179;-75
2021/08/17 02:58:08;;;;;;;9.23;2.60;;;13.70;99.90;;;;;;5018915;28;20539;-75
2021/08/17 03:00:33;;;;;;;13.77;2.50;;;13.80;99.90;;;;;;5018124;28;20655;-75
2021/08/17 03:02:59;;;;;;;9.40;2.60;;;13.80;99.90;;;;;;5017265;28;20202;-76
2021/08/17 03:05:24;;;;;;;15.30;2.50;;;13.80;99.90;;;;;;5034933;28;20214;-75
2021/08/17 03:07:51;;;;;;;13.57;3.10;;;13.80;99.90;;;;;;5033889;28;20712;-75
2021/08/17 03:10:17;;;;;;;11.80;2.40;;;13.70;99.90;;;;;;5033637;28;20187;-75
2021/08/17 03:12:42;;;;;;;8.93;2.77;;;13.70;99.90;;;;;;5032998;28;20213;-75
2021/08/17 03:15:08;;;;;;;10.47;2.47;;;13.80;99.90;;;;;;5033651;28;20642;-75
2021/08/17 03:17:37;;;;;;;13.00;2.53;;;13.80;99.90;;;;;;5035370;28;20659;-75
2021/08/17 03:20:04;;;;;;;10.77;3.00;;;13.80;99.90;;;;;;5033501;28;20274;-75
2021/08/17 03:22:29;;;;;;;11.50;2.73;;;13.80;99.90;;;;;;5033648;28;20186;-75
2021/08/17 03:24:55;;;;;;;6.27;2.40;;;13.70;99.90;;;;;;5033559;28;20240;-75
2021/08/17 03:27:20;;;;;;;12.63;2.97;;;13.70;99.90;;;;;;5033447;28;20255;-75
2021/08/17 03:29:46;;;;;;;9.67;3.00;;;13.70;99.90;;;;;;5033784;28;20241;-75
2021/08/17 03:32:11;;;;;;;8.00;2.97;;;13.70;99.90;;;;;;5017436;28;20190;-75
2021/08/17 03:34:37;;;;;;;11.43;2.93;;;13.70;99.90;;;;;;5034326;28;20202;-75
2021/08/17 03:37:03;;;;;;;11.87;2.77;;;13.70;99.90;;;;;;5017244;28;20260;-75
2021/08/17 03:39:28;;;;;;;13.27;2.70;;;13.70;99.90;;;;;;5033195;28;20190;-75
2021/08/17 03:41:54;;;;;;;9.47;2.70;;;13.70;99.90;;;;;;5033277;28;20181;-75
2021/08/17 03:44:19;;;;;;;10.87;2.80;;;13.70;99.90;;;;;;5033158;28;20237;-75
2021/08/17 03:46:45;;;;;;;10.17;2.80;;;13.70;99.90;;;;;;5016760;28;20183;-75
2021/08/17 03:49:10;;;;;;;10.97;3.50;;;13.60;99.90;;;;;;5034301;28;20734;-75
2021/08/17 03:51:36;;;;;;;9.07;2.90;;;13.60;99.90;;;;;;5033526;28;20689;-75
2021/08/17 03:54:01;;;;;;;9.73;3.20;;;13.60;99.90;;;;;;5033224;28;20202;-75
2021/08/17 03:56:27;;;;;;;11.37;2.63;;;13.60;99.90;;;;;;5033100;28;20191;-75
2021/08/17 03:58:52;;;;;;;12.90;3.20;;;13.60;99.90;;;;;;5032827;28;20186;-75
2021/08/17 04:01:19;;;;;;;12.40;2.97;;;13.60;99.90;;;;;;5034202;28;20190;-75
2021/08/17 04:03:45;;;;;;;10.40;3.10;;;13.50;99.90;;;;;;5034215;28;20191;-75
2021/08/17 04:06:10;;;;;;;10.53;3.00;;;13.50;99.90;;;;;;5032903;28;20218;-75
2021/08/17 04:08:37;;;;;;;8.47;3.20;;;13.40;99.90;;;;;;5033311;28;20186;-74
2021/08/17 04:11:03;;;;;;;8.63;2.87;;;13.40;99.90;;;;;;5032998;28;20206;-75
2021/08/17 04:13:28;;;;;;;10.07;2.80;;;13.30;99.90;;;;;;5032794;28;20290;-75
2021/08/17 04:15:54;;;;;;;12.07;3.57;;;13.30;99.90;;;;;;5034394;28;20214;-74
2021/08/17 04:18:19;;;;;;;10.33;3.20;;;13.20;99.90;;;;;;5033466;28;20187;-75
2021/08/17 04:20:45;;;;;;;13.40;3.40;;;13.20;99.90;;;;;;5032848;28;20186;-75
2021/08/17 04:23:11;;;;;;;15.10;3.23;;;13.00;99.90;;;;;;5032950;28;20195;-75
2021/08/17 04:25:36;;;;;;;10.10;3.57;;;13.00;99.90;;;;;;5014972;28;20297;-75
2021/08/17 04:28:02;;;;;;;12.60;3.13;;;12.90;99.90;;;;;;5032531;28;20253;-75
2021/08/17 04:30:27;;;;;;;10.53;3.90;;;12.90;99.90;;;;;;5033588;28;20670;-75
2021/08/17 04:32:53;;;;;;;10.97;3.60;;;12.90;99.90;;;;;;5032418;28;20222;-75
2021/08/17 04:35:19;;;;;;;11.33;3.93;;;12.80;99.90;;;;;;5032423;28;20179;-75
2021/08/17 04:37:46;;;;;;;11.33;4.00;;;12.80;99.90;;;;;;5032592;28;20174;-75
2021/08/17 04:40:12;;;;;;;11.17;4.20;;;12.80;99.90;;;;;;5032106;28;20229;-75
2021/08/17 04:42:38;;;;;;;10.63;3.90;;;12.70;99.90;;;;;;5015912;28;20194;-75
2021/08/17 04:45:04;;;;;;;11.53;4.37;;;12.70;99.90;;;;;;5032118;28;20215;-75
2021/08/17 04:47:30;;;;;;;10.03;4.33;;;12.70;99.90;;;;;;5032421;28;20187;-75
2021/08/17 04:49:55;;;;;;;9.40;4.40;;;12.70;99.90;;;;;;5032343;28;20182;-75
2021/08/17 04:52:21;;;;;;;9.03;4.13;;;12.70;99.90;;;;;;5032015;28;20179;-75
2021/08/17 04:54:46;;;;;;;12.93;4.50;;;12.70;99.90;;;;;;5032020;28;20203;-75
2021/08/17 04:57:13;;;;;;;9.07;4.63;;;12.60;99.90;;;;;;5032067;28;20272;-75
2021/08/17 04:59:39;;;;;;;12.10;4.20;;;12.60;99.90;;;;;;5031536;28;20171;-75
2021/08/17 05:02:05;;;;;;;12.73;4.80;;;12.60;99.90;;;;;;5032040;28;20233;-75
2021/08/17 05:04:30;;;;;;;12.90;4.50;;;12.60;99.90;;;;;;5031903;28;20253;-75
2021/08/17 05:06:56;;;;;;;12.27;4.90;;;12.60;99.90;;;;;;5031172;28;20202;-75
2021/08/17 05:09:22;;;;;;;12.10;4.60;;;12.60;99.90;;;;;;5031145;28;20671;-74
2021/08/17 05:11:48;;;;;;;15.30;5.07;;;12.70;99.90;;;;;;5031656;28;20186;-75
2021/08/17 05:14:13;;;;;;;8.97;4.47;;;12.60;99.90;;;;;;5031587;28;20210;-75
2021/08/17 05:16:39;;;;;;;10.87;5.20;;;12.70;99.90;;;;;;5031653;28;20186;-75
2021/08/17 05:19:04;;;;;;;12.10;5.07;;;12.80;99.90;;;;;;5031633;28;20179;-75
2021/08/17 05:21:30;;;;;;;12.10;4.90;;;12.80;99.90;;;;;;5031469;28;20217;-75
2021/08/17 05:23:58;;;;;;;10.13;5.00;;;12.90;99.90;;;;;;5031258;28;20203;-75
2021/08/17 05:26:24;;;;;;;12.77;4.90;;;12.90;99.90;;;;;;5031085;28;20229;-74
2021/08/17 05:28:50;;;;;;;16.07;5.73;;;13.00;99.90;;;;;;5030893;28;20177;-75
2021/08/17 05:31:15;;;;;;;12.63;5.37;;;13.00;99.90;;;;;;5031585;28;20540;-75
2021/08/17 05:33:41;;;;;;;12.33;5.67;;;13.10;99.90;;;;;;5031277;28;20325;-76
2021/08/17 05:36:06;;;;;;;12.77;5.70;;;13.10;99.90;;;;;;5031907;28;20252;-75
2021/08/17 05:38:32;;;;;;;12.13;4.90;;;13.30;99.90;;;;;;5031235;28;20182;-75
2021/08/17 05:40:57;;;;;;;13.37;6.00;;;13.40;99.90;;;;;;5031278;28;20202;-75
2021/08/17 05:43:23;;;;;;;14.13;5.50;;;13.50;99.90;;;;;;5031248;28;20198;-75
2021/08/17 05:45:49;;;;;;;12.47;5.60;;;13.60;99.90;;;;;;5032330;28;20206;-76
2021/08/17 05:48:15;;;;;;;14.20;5.97;;;13.80;99.90;;;;;;5014778;28;20227;-75
2021/08/17 05:50:41;;;;;;;12.87;5.87;;;14.00;99.90;;;;;;5030774;28;20214;-76
2021/08/17 05:53:06;;;;;;;13.00;5.83;;;14.20;99.90;;;;;;5031520;28;20198;-77
2021/08/17 05:55:32;;;;;;;17.07;6.40;;;14.30;99.90;;;;;;5030296;28;20210;-76
2021/08/17 05:58:00;;;;;;;21.87;5.83;;;14.80;99.90;;;;;;5017930;28;20278;-78
2021/08/17 06:00:26;;;;;;;11.40;5.67;;;15.20;99.90;;;;;;5031660;28;20175;-76
2021/08/17 06:02:52;;;;;;;13.53;6.23;;;15.40;99.90;;;;;;5032465;28;20207;-76
2021/08/17 06:05:17;;;;;;;10.47;5.73;;;15.50;99.90;;;;;;5031433;28;20283;-77
2021/08/17 06:07:50;;;;;;;11.73;5.77;;;15.50;99.90;;;;;;5030892;28;20179;-77
2021/08/17 06:10:16;;;;;;;11.57;5.30;;;15.60;99.90;;;;;;5030965;28;20233;-77
2021/08/17 06:12:42;;;;;;;10.57;5.70;;;15.60;99.90;;;;;;5014556;28;20183;-77
2021/08/17 06:15:08;;;;;;;11.13;5.80;;;15.70;99.90;;;;;;5032436;28;20171;-77
2021/08/17 06:17:33;;;;;;;16.50;5.43;;;15.50;99.90;;;;;;5031706;28;20666;-76
2021/08/17 06:19:59;;;;;;;13.83;5.87;;;15.40;99.90;;;;;;5031296;28;20177;-77
2021/08/17 06:22:24;;;;;;;14.80;6.13;;;15.20;99.90;;;;;;5014393;28;20214;-78
2021/08/17 06:24:50;;;;;;;12.90;5.30;;;15.10;99.90;;;;;;5014058;28;20202;-78
2021/08/17 06:27:16;;;;;;;13.37;5.20;;;15.00;99.90;;;;;;5051282;28;20185;-77
2021/08/17 06:29:43;;;;;;;10.97;5.80;;;14.90;99.90;;;;;;5041544;28;20720;-78
2021/08/17 06:32:08;;;;;;;12.87;5.73;;;14.80;99.90;;;;;;5015737;28;20202;-79
2021/08/17 06:34:34;;;;;;;11.57;5.87;;;14.80;99.90;;;;;;5032359;28;20249;-78
2021/08/17 06:36:59;;;;;;;16.27;6.23;;;14.90;99.90;;;;;;5031709;28;20186;-78
2021/08/17 06:39:25;;;;;;;12.20;5.73;;;15.00;99.90;;;;;;5031533;28;20187;-76
2021/08/17 06:41:50;;;;;;;13.97;6.80;;;15.10;99.90;;;;;;5035904;28;20217;-76
2021/08/17 06:44:16;;;;;;;12.63;6.07;;;15.30;99.90;;;;;;5036306;28;20638;-75
2021/08/17 06:46:41;;;;;;;12.60;6.50;;;15.50;99.90;;;;;;5011427;28;20215;-77
2021/08/17 06:49:07;;;;;;;13.83;6.47;;;15.70;99.90;;;;;;5030349;28;20222;-77
2021/08/17 06:51:32;;;;;;;13.27;6.80;;;16.00;99.90;;;;;;5029210;28;20715;-76
2021/08/17 06:53:58;;;;;;;13.40;6.50;;;16.30;99.90;;;;;;5032541;28;20856;-76
2021/08/17 06:56:24;;;;;;;10.93;6.67;;;16.60;99.90;;;;;;5038709;28;20638;-76
2021/08/17 06:58:49;;;;;;;10.73;6.00;;;16.90;99.90;;;;;;5050253;28;20210;-77
2021/08/17 07:01:15;;;;;;;13.17;6.83;;;17.20;99.90;;;;;;5049616;28;20183;-76
2021/08/17 07:03:40;;;;;;;12.87;6.53;;;17.10;99.90;;;;;;5051674;28;20268;-75
2021/08/17 07:06:06;;;;;;;13.97;7.90;;;16.80;99.90;;;;;;5040559;28;20198;-76
2021/08/17 07:08:31;;;;;;;12.00;6.90;;;16.50;99.90;;;;;;5033460;28;20252;-76
2021/08/17 07:10:57;;;;;;;14.07;7.33;;;16.30;99.90;;;;;;5041652;28;20185;-77
2021/08/17 07:13:24;;;;;;;17.27;7.63;;;16.10;99.90;;;;;;5035740;28;20198;-77
2021/08/17 07:15:49;;;;;;;13.67;6.83;;;16.00;99.90;;;;;;5041964;28;20228;-76
2021/08/17 07:18:15;;;;;;;17.73;7.30;;;16.00;99.90;;;;;;5067021;28;20179;-76
2021/08/17 07:20:41;;;;;;;15.67;7.57;;;15.90;99.90;;;;;;5035165;28;20663;-75
2021/08/17 07:23:06;;;;;;;15.00;7.73;;;16.00;99.90;;;;;;5028105;28;20202;-76
2021/08/17 07:25:32;;;;;;;15.63;8.33;;;16.30;99.90;;;;;;5051285;28;20289;-77
2021/08/17 07:27:57;;;;;;;12.37;7.27;;;16.70;99.90;;;;;;5027541;28;20183;-77
2021/08/17 07:30:23;;;;;;;17.57;7.83;;;17.30;99.90;;;;;;5044659;28;20178;-76
2021/08/17 07:32:49;;;;;;;16.97;8.23;;;17.60;99.90;;;;;;5050914;28;20211;-77
2021/08/17 07:35:17;;;;;;;15.50;7.67;;;17.60;99.90;;;;;;5026246;28;20180;-77
2021/08/17 07:37:44;;;;;;;19.77;8.10;;;17.50;99.90;;;;;;5025447;28;20194;-77
2021/08/17 07:40:10;;;;;;;12.27;7.63;;;17.60;99.90;;;;;;5043511;28;20181;-77
2021/08/17 07:42:35;;;;;;;13.47;7.70;;;17.80;99.90;;;;;;5051184;28;20635;-76
2021/08/17 07:45:01;;;;;;;16.37;7.83;;;18.10;99.90;;;;;;5025062;28;20213;-77
2021/08/17 07:47:27;;;;;;;15.30;8.30;;;18.00;99.90;;;;;;5047242;28;20170;-77
2021/08/17 07:49:52;;;;;;;11.77;7.20;;;17.80;99.90;;;;;;5020036;28;20250;-77
2021/08/17 07:52:18;;;;;;;17.57;8.10;;;17.70;99.90;;;;;;5033995;28;20171;-77
2021/08/17 07:54:43;;;;;;;17.87;8.30;;;17.50;99.90;;;;;;5041550;28;20268;-76
2021/08/17 07:57:09;;;;;;;16.13;8.60;;;17.40;99.90;;;;;;5043504;28;20181;-77
2021/08/17 07:59:34;;;;;;;14.63;8.90;;;17.30;99.90;;;;;;5064065;28;20178;-77
2021/08/17 08:02:00;;;;;;;16.50;8.77;;;17.20;99.90;;;;;;5032790;28;20237;-77
2021/08/17 08:04:26;;;;;;;17.07;9.17;;;17.10;99.90;;;;;;5012908;28;20691;-76
2021/08/17 08:06:51;;;;;;;16.53;9.40;;;17.10;99.90;;;;;;5029459;28;20222;-77
2021/08/17 08:09:17;;;;;;;18.70;10.50;;;17.00;99.90;;;;;;5030332;28;20168;-77
2021/08/17 08:11:42;;;;;;;17.77;10.10;;;16.90;99.90;;;;;;5013041;28;20172;-77
2021/08/17 08:14:08;;;;;;;17.50;10.90;;;16.80;99.90;;;;;;5028175;28;20261;-76
2021/08/17 08:16:33;;;;;;;21.30;10.97;;;16.70;99.90;;;;;;5032553;28;20654;-77
2021/08/17 08:18:59;;;;;;;19.97;11.13;;;16.60;99.90;;;;;;5038436;28;20666;-77
2021/08/17 08:21:24;;;;;;;22.67;10.73;;;16.60;99.90;;;;;;5041578;28;20186;-77
2021/08/17 08:25:55;;;;;;;20.80;10.37;;;16.70;99.90;;;;;;5073643;28;20568;-78
2021/08/17 08:28:20;;;;;;;20.37;10.93;;;16.90;99.90;;;;;;5072363;28;20181;-79
2021/08/17 08:30:46;;;;;;;21.13;11.37;;;17.20;99.90;;;;;;5055316;28;20174;-78
2021/08/17 08:33:11;;;;;;;22.13;11.93;;;17.60;99.90;;;;;;5065387;28;20190;-78
2021/08/17 08:35:37;;;;;;;19.77;11.07;;;17.90;99.90;;;;;;5062047;28;20528;-79
2021/08/17 08:38:03;;;;;;;23.23;11.73;;;18.00;99.90;;;;;;5072374;28;20184;-77
2021/08/17 08:40:28;;;;;;;19.47;11.13;;;17.90;99.90;;;;;;5033170;28;20186;-77
2021/08/17 08:42:54;;;;;;;19.63;11.20;;;17.70;99.90;;;;;;5048992;28;20194;-77
2021/08/17 08:45:19;;;;;;;22.37;11.27;;;17.60;99.90;;;;;;5069518;28;20204;-79
2021/08/17 08:47:45;;;;;;;22.07;11.43;;;17.60;99.90;;;;;;5051646;28;20215;-78
2021/08/17 08:50:11;;;;;;;20.80;11.93;;;17.50;99.90;;;;;;5068431;28;20202;-78
2021/08/17 08:52:37;;;;;;;18.40;11.07;;;17.50;99.90;;;;;;5050769;28;20194;-78
2021/08/17 08:55:04;;;;;;;22.97;11.73;;;17.50;99.90;;;;;;5049043;28;20792;-77
2021/08/17 08:57:30;;;;;;;23.10;12.67;;;17.60;99.90;;;;;;5051041;28;20217;-79
2021/08/17 08:59:56;;;;;;;21.63;12.00;;;17.70;99.90;;;;;;5052138;28;20174;-79
2021/08/17 09:02:26;;;;;;;21.83;12.23;;;17.80;99.90;;;;;;5050687;28;20528;-77
2021/08/17 09:04:55;;;;;;;22.97;12.90;;;17.90;99.90;;;;;;5035557;28;20239;-77
2021/08/17 09:07:36;;;;;;;23.40;13.43;;;18.00;99.90;;;;;;5062050;28;20223;-77
2021/08/17 09:10:19;;;;;;;23.70;12.27;;;17.90;99.90;;;;;;5063351;28;20684;-78
2021/08/17 09:12:45;;;;;;;23.27;12.27;;;18.00;99.90;;;;;;5049770;28;20713;-77
2021/08/17 09:15:33;;;;;;;21.83;12.77;;;17.90;99.90;;;;;;5049329;28;20178;-77
2021/08/17 09:18:02;;;;;;;21.07;12.30;;;17.90;99.90;;;;;;5049458;28;20190;-78
2021/08/17 09:20:33;;;;;;;23.63;11.83;;;17.90;99.90;;;;;;5067657;28;20715;-77
2021/08/17 09:23:19;;;;;;;22.00;11.87;;;18.00;99.90;;;;;;5051147;28;20741;-78
2021/08/17 09:25:44;;;;;;;25.50;13.23;;;18.00;99.90;;;;;;5049325;28;20237;-77
2021/08/17 09:28:29;;;;;;;20.97;11.97;;;18.00;99.90;;;;;;5049128;28;20231;-76
2021/08/17 09:30:54;;;;;;;23.13;11.83;;;18.00;99.90;;;;;;5047753;28;20719;-77
2021/08/17 09:33:20;;;;;;;23.07;12.73;;;18.10;99.90;;;;;;5048659;28;20198;-77
2021/08/17 09:35:45;;;;;;;21.63;12.93;;;18.10;99.90;;;;;;5044345;28;20183;-78
2021/08/17 09:38:13;;;;;;;19.97;12.13;;;18.00;99.90;;;;;;5036495;28;20226;-78
2021/08/17 09:40:39;;;;;;;19.03;12.63;;;18.00;99.90;;;;;;5020193;28;20175;-77
2021/08/17 09:43:18;;;;;;;22.03;13.17;;;18.00;99.90;;;;;;5035683;28;20198;-77
2021/08/17 09:45:44;;;;;;;24.57;12.63;;;18.00;99.90;;;;;;5036655;28;20297;-78
2021/08/17 09:48:14;;;;;;;24.57;13.30;;;17.90;99.90;;;;;;5035230;28;20823;-77
2021/08/17 09:50:41;;;;;;;23.43;14.37;;;18.00;99.90;;;;;;5016413;28;20182;-79
2021/08/17 09:53:14;;;;;;;22.43;13.20;;;17.90;99.90;;;;;;5005663;28;20203;-79
2021/08/17 09:55:46;;;;;;;26.43;14.73;;;18.00;99.90;;;;;;5016272;28;20183;-78
2021/08/17 09:58:26;;;;;;;25.03;13.83;;;18.00;99.90;;;;;;5014491;28;20672;-78
2021/08/17 10:00:56;;;;;;;21.23;13.73;;;18.10;99.90;;;;;;5018174;28;20186;-79
2021/08/17 10:03:22;;;;;;;22.73;14.57;;;18.10;99.90;;;;;;5034821;28;20268;-80
2021/08/17 10:05:48;;;;;;;23.50;15.43;;;18.20;99.90;;;;;;5018271;28;20304;-77
2021/08/17 10:08:16;;;;;;;24.90;16.10;;;18.20;99.90;;;;;;5033972;28;20171;-79
2021/08/17 10:10:42;;;;;;;24.93;16.03;;;18.20;99.90;;;;;;5034980;28;20187;-76
2021/08/17 10:13:12;;;;;;;22.97;15.73;;;18.10;99.90;;;;;;5034677;28;20203;-82
2021/08/17 10:15:38;;;;;;;25.07;15.80;;;18.10;99.90;;;;;;5052884;28;20650;-81
2021/08/17 10:18:04;;;;;;;24.23;15.63;;;18.00;99.90;;;;;;5038844;28;20597;-81
2021/08/17 10:20:30;;;;;;;26.20;16.87;;;17.90;99.90;;;;;;5036168;28;20187;-79
2021/08/17 10:22:56;;;;;;;24.13;15.67;;;17.90;99.90;;;;;;5037717;28;20262;-80
2021/08/17 10:25:21;;;;;;;25.20;15.00;;;17.80;99.90;;;;;;5019663;28;20245;-79
2021/08/17 10:27:47;;;;;;;28.03;16.03;;;17.60;99.90;;;;;;5037738;28;20190;-79
2021/08/17 10:30:25;;;;;;;27.47;15.10;;;17.50;99.90;;;;;;5035949;28;20178;-81
2021/08/17 10:32:58;;;;;;;26.33;14.97;;;17.40;99.90;;;;;;5035985;28;20207;-81
2021/08/17 10:35:27;;;;;;;25.17;14.73;;;17.40;99.90;;;;;;5021697;28;20183;-79
2021/08/17 10:38:10;;;;;;;26.27;15.87;;;17.50;99.90;;;;;;5038572;28;20175;-79
2021/08/17 10:40:51;;;;;;;27.33;15.13;;;17.60;99.90;;;;;;5035829;28;20183;-78
2021/08/17 10:43:20;;;;;;;23.17;13.90;;;17.80;99.90;;;;;;5035436;28;20233;-80
2021/08/17 10:46:05;;;;;;;26.20;14.27;;;17.90;99.90;;;;;;5035481;28;20218;-80
2021/08/17 10:51:18;;;;;;;21.03;13.63;;;18.10;99.90;;;;;;5037397;28;20178;-78
2021/08/17 10:53:45;;;;;;;25.27;13.13;;;18.00;99.90;;;;;;5051651;28;20245;-79
2021/08/17 10:56:14;;;;;;;19.63;13.07;;;17.90;99.90;;;;;;5018729;28;20197;-80
2021/08/17 10:58:41;;;;;;;21.93;13.20;;;17.90;99.90;;;;;;5036270;28;20177;-80
2021/08/17 11:01:07;;;;;;;23.87;13.43;;;17.90;99.90;;;;;;5037812;28;20262;-79
2021/08/17 11:03:47;;;;;;;22.40;13.03;;;17.90;99.90;;;;;;5018234;28;20226;-80
2021/08/17 11:06:34;;;;;;;22.13;13.00;;;17.90;99.90;;;;;;5031909;28;20179;-79
2021/08/17 11:09:00;;;;;;;23.07;13.30;;;17.90;99.90;;;;;;5036393;28;20193;-79
2021/08/17 11:11:26;;;;;;;23.97;12.70;;;17.90;99.90;;;;;;5035389;28;20175;-79
2021/08/17 11:14:12;;;;;;;18.77;12.10;;;17.90;99.90;;;;;;5035524;28;20190;-80
2021/08/17 11:16:42;;;;;;;25.57;13.50;;;18.00;99.90;;;;;;5020037;28;20257;-79
2021/08/17 11:19:08;;;;;;;20.53;12.63;;;18.10;99.90;;;;;;5036787;28;20182;-78
2021/08/17 11:21:42;;;;;;;21.60;12.50;;;18.10;99.90;;;;;;5020178;28;20167;-80
2021/08/17 11:24:10;;;;;;;21.97;13.30;;;18.10;99.90;;;;;;5033682;28;20557;-75
2021/08/17 11:26:36;;;;;;;21.77;12.57;;;18.10;99.90;;;;;;5031570;28;20660;-75
2021/08/17 11:29:01;;;;;;;20.73;12.20;;;18.00;99.90;;;;;;5031430;28;20163;-75
2021/08/17 11:31:27;;;;;;;22.37;13.37;;;17.90;99.90;;;;;;5032795;28;20564;-75
2021/08/17 11:34:35;;;;;;;23.70;13.10;;;17.90;99.90;;;;;;5048192;28;20191;-75
2021/08/17 11:37:12;;;;;;;21.07;12.50;;;17.90;99.90;;;;;;5010488;28;20689;-75
2021/08/17 11:39:47;;;;;;;22.27;13.73;;;17.90;99.90;;;;;;4995037;28;20256;-75
2021/08/17 11:42:26;;;;;;;20.57;12.60;;;18.00;99.90;;;;;;5024337;28;20206;-76
2021/08/17 11:44:56;;;;;;;20.13;12.67;;;18.10;99.90;;;;;;5047338;28;20678;-76
2021/08/17 11:47:22;;;;;;;19.70;12.13;;;18.20;99.90;;;;;;5032438;28;20171;-86
2021/08/17 11:49:49;;;;;;;20.63;12.87;;;18.20;99.90;;;;;;5017562;28;20517;-82
2021/08/17 11:52:22;;;;;;;23.93;13.23;;;18.20;99.90;;;;;;5017702;28;20179;-81
2021/08/17 11:54:58;;;;;;;23.13;13.10;;;18.30;99.90;;;;;;5017499;28;20215;-81
2021/08/17 11:57:30;;;;;;;19.83;12.23;;;18.40;99.90;;;;;;5033955;28;20190;-77
2021/08/17 12:00:01;;;;;;;20.87;12.53;;;18.70;99.90;;;;;;5055536;28;20178;-81
2021/08/17 12:02:27;;;;;;;20.47;11.83;;;18.90;99.90;;;;;;5036051;28;20171;-81
2021/08/17 12:05:00;;;;;;;18.97;11.87;;;19.00;99.90;;;;;;5019309;28;20218;-80
2021/08/17 12:07:27;;;;;;;16.83;11.07;;;19.10;99.90;;;;;;5037379;28;20209;-80
2021/08/17 12:09:53;;;;;;;17.40;10.67;;;19.00;99.90;;;;;;5055541;28;20182;-81
2021/08/17 12:12:39;;;;;;;19.53;11.13;;;18.90;99.90;;;;;;5054823;28;20254;-83
2021/08/17 12:15:09;;;;;;;16.87;10.80;;;18.80;99.90;;;;;;5001149;28;20195;-80
2021/08/17 12:17:35;;;;;;;17.93;10.50;;;18.60;99.90;;;;;;5016161;28;20226;-80
2021/08/17 12:20:00;;;;;;;18.83;11.17;;;18.30;99.90;;;;;;5014985;28;20180;-82
2021/08/17 12:22:27;;;;;;;18.80;11.40;;;18.10;99.90;;;;;;5014506;28;20184;-80
2021/08/17 12:24:53;;;;;;;19.97;10.97;;;18.00;99.90;;;;;;5033810;28;20218;-81
2021/08/17 12:27:26;;;;;;;19.63;11.03;;;17.90;99.90;;;;;;5018388;28;20175;-82
2021/08/17 12:29:52;;;;;;;18.43;10.73;;;17.90;99.90;;;;;;5002392;28;20261;-79
2021/08/17 12:32:24;;;;;;;16.83;10.87;;;17.90;99.90;;;;;;5041771;28;20228;-81
2021/08/17 12:34:51;;;;;;;17.40;10.90;;;17.90;99.90;;;;;;5003146;28;20692;-79
2021/08/17 12:37:37;;;;;;;17.77;10.93;;;18.00;99.90;;;;;;5019559;28;20183;-80
2021/08/17 12:40:09;;;;;;;17.43;10.13;;;18.10;99.90;;;;;;5029203;28;20179;-81